Time;durP1;ratioP1;P1;durP2;ratioP2;P2;SDS_P1;SDS_P2;PMS_P1;PMS_P2;Temp;Humidity;BMP_temperature;BMP_pressure;BME280_temperature;BME280_humidity;BME280_pressure;Samples;Min_cycle;Max_cycle;Signal;HPM_P1;HPM_P2
2021/10/02 00:35:31;;;;;;;0.10;0.10;;;;;;;11.41;95.96;101309.56;10465279;28;20029;-65
2021/10/02 00:45:50;;;;;;;0.00;0.00;;;;;;;11.40;96.61;101302.53;10486462;28;20032;-65
2021/10/02 00:50:57;;;;;;;0.10;0.10;;;;;;;11.42;96.73;101300.56;10465711;28;20037;-65
2021/10/02 00:55:58;;;;;;;0.10;0.10;;;;;;;11.42;97.16;101297.91;10476286;28;20353;-66
2021/10/02 01:01:01;;;;;;;0.10;0.10;;;;;;;11.43;97.45;101291.59;10464852;28;20389;-65
2021/10/02 01:11:33;;;;;;;0.10;0.10;;;;;;;11.47;97.94;101305.44;10413820;28;20077;-66
2021/10/02 01:16:41;;;;;;;0.10;0.10;;;;;;;11.47;98.05;101300.13;10372806;28;20088;-67
2021/10/02 01:22:29;;;;;;;0.10;0.10;;;;;;;11.45;98.78;101291.41;10369988;28;20033;-67
2021/10/02 01:27:54;;;;;;;0.10;0.10;;;;;;;11.45;99.08;101300.25;10373433;28;20105;-67
2021/10/02 01:33:05;;;;;;;0.10;0.10;;;;;;;11.48;98.69;101291.09;10384120;28;20056;-67
2021/10/02 01:48:48;;;;;;;0.00;0.00;;;;;;;11.55;98.98;101292.19;10373077;28;20104;-67
2021/10/02 01:53:49;;;;;;;0.10;0.10;;;;;;;11.57;99.41;101290.19;10373338;28;20034;-67
2021/10/02 01:58:50;;;;;;;0.10;0.10;;;;;;;11.57;99.06;101284.84;10372170;28;20021;-67
2021/10/02 02:03:55;;;;;;;0.10;0.10;;;;;;;11.60;99.04;101284.53;10385643;28;20033;-67
2021/10/02 02:08:56;;;;;;;0.10;0.10;;;;;;;11.60;99.12;101279.19;10372115;28;20057;-67
2021/10/02 02:13:59;;;;;;;0.10;0.10;;;;;;;11.61;98.76;101280.91;10372049;28;20026;-66
2021/10/02 02:19:00;;;;;;;0.10;0.10;;;;;;;11.60;98.96;101257.84;10371210;28;20022;-67
2021/10/02 02:24:01;;;;;;;0.10;0.10;;;;;;;11.63;98.69;101262.03;10371776;28;20024;-67
2021/10/02 02:29:02;;;;;;;0.10;0.10;;;;;;;11.64;98.90;101259.25;10371566;28;20454;-66
2021/10/02 02:34:03;;;;;;;0.10;0.10;;;;;;;11.66;98.92;101259.06;10372656;28;20080;-66
2021/10/02 02:39:04;;;;;;;0.10;0.10;;;;;;;11.67;99.14;101268.75;10399797;28;20067;-67
2021/10/02 02:44:04;;;;;;;0.10;0.10;;;;;;;11.69;98.83;101256.94;10411169;28;20105;-66
2021/10/02 02:49:16;;;;;;;0.10;0.10;;;;;;;11.71;98.86;101265.59;10410752;28;20017;-67
2021/10/02 02:54:26;;;;;;;0.00;0.00;;;;;;;11.72;98.97;101261.97;10411208;28;20079;-66
2021/10/02 02:59:36;;;;;;;0.10;0.10;;;;;;;11.75;98.84;101272.34;10410422;28;20025;-66
2021/10/02 03:04:38;;;;;;;0.10;0.10;;;;;;;11.76;98.71;101270.50;10378859;28;20029;-66
2021/10/02 03:09:45;;;;;;;0.10;0.10;;;;;;;11.79;98.58;101267.50;10372060;28;20101;-66
2021/10/02 03:14:50;;;;;;;0.10;0.10;;;;;;;11.79;98.66;101257.66;10375099;28;20045;-66
2021/10/02 03:19:51;;;;;;;0.10;0.10;;;;;;;11.82;98.62;101255.69;10396078;28;20156;-66
2021/10/02 03:24:52;;;;;;;0.10;0.10;;;;;;;11.83;98.74;101258.19;10409896;28;20053;-66
2021/10/02 03:29:52;;;;;;;0.10;0.10;;;;;;;11.86;98.72;101257.06;10368688;28;20053;-66
2021/10/02 03:34:53;;;;;;;0.10;0.10;;;;;;;11.88;98.73;101257.75;10398430;28;20042;-66
2021/10/02 03:39:54;;;;;;;0.10;0.10;;;;;;;11.89;98.57;101243.41;10371201;28;20029;-66
2021/10/02 03:44:55;;;;;;;0.10;0.10;;;;;;;11.91;98.79;101241.44;10395357;28;20478;-66
2021/10/02 03:49:55;;;;;;;0.10;0.10;;;;;;;11.91;98.61;101236.09;10370356;28;20018;-66
2021/10/02 03:54:55;;;;;;;0.10;0.10;;;;;;;11.92;98.71;101235.09;10368433;28;20402;-66
2021/10/02 03:59:56;;;;;;;0.00;0.00;;;;;;;11.93;98.45;101231.44;10386516;28;20064;-66
2021/10/02 04:04:56;;;;;;;0.10;0.10;;;;;;;11.93;98.84;101223.44;10394736;28;20026;-66
2021/10/02 04:09:57;;;;;;;0.10;0.10;;;;;;;11.93;98.69;101234.94;10369904;28;20281;-66
2021/10/02 04:14:57;;;;;;;0.10;0.10;;;;;;;11.94;98.57;101227.75;10367442;28;20025;-66
2021/10/02 04:19:58;;;;;;;0.00;0.00;;;;;;;11.95;98.34;101235.59;10380877;28;20014;-66
2021/10/02 04:24:58;;;;;;;0.10;0.10;;;;;;;11.94;98.48;101239.28;10406029;28;20025;-66
2021/10/02 04:29:58;;;;;;;0.10;0.10;;;;;;;11.91;98.33;101234.25;10407602;28;20017;-65
2021/10/02 04:34:59;;;;;;;0.10;0.10;;;;;;;11.90;98.57;101234.44;10393149;28;20084;-67
2021/10/02 04:39:59;;;;;;;0.10;0.10;;;;;;;11.89;98.39;101240.75;10368960;28;20040;-66
2021/10/02 04:44:59;;;;;;;0.10;0.10;;;;;;;11.86;98.37;101243.72;10367031;28;20025;-68
2021/10/02 04:50:00;;;;;;;0.10;0.10;;;;;;;11.83;97.94;101231.50;10366256;28;20032;-67
2021/10/02 04:55:00;;;;;;;0.10;0.10;;;;;;;11.82;98.03;101245.84;10377478;28;20031;-67
2021/10/02 05:00:00;;;;;;;0.10;0.10;;;;;;;11.82;97.89;101235.16;10415734;28;20466;-67
2021/10/02 05:05:01;;;;;;;0.10;0.10;;;;;;;11.81;97.85;101243.31;10399362;28;20025;-67
2021/10/02 05:10:02;;;;;;;0.10;0.10;;;;;;;11.79;97.91;101243.50;10382158;28;20390;-67
2021/10/02 05:15:03;;;;;;;0.10;0.10;;;;;;;11.80;97.59;101255.84;10414819;28;20663;-67
2021/10/02 05:20:05;;;;;;;0.00;0.00;;;;;;;11.80;97.93;101263.84;10414895;28;20018;-67
2021/10/02 05:25:05;;;;;;;0.10;0.10;;;;;;;11.79;98.30;101255.00;10394147;28;20018;-67
2021/10/02 05:30:06;;;;;;;0.10;0.10;;;;;;;11.79;98.10;101255.00;10375545;28;20430;-67
2021/10/02 05:35:07;;;;;;;0.10;0.10;;;;;;;11.78;97.95;101253.34;10397830;28;20038;-67
2021/10/02 05:40:07;;;;;;;0.10;0.10;;;;;;;11.78;97.76;101261.34;10407377;28;20027;-67
2021/10/02 05:45:08;;;;;;;0.00;0.00;;;;;;;11.79;97.91;101260.34;10413876;28;20021;-67
2021/10/02 05:50:09;;;;;;;0.10;0.10;;;;;;;11.82;97.92;101255.69;10413162;28;20026;-67
2021/10/02 05:55:10;;;;;;;0.00;0.00;;;;;;;11.83;97.94;101258.19;10413625;28;20133;-67
2021/10/02 06:00:11;;;;;;;0.10;0.10;;;;;;;11.87;97.91;101254.25;10413007;28;20071;-67
2021/10/02 06:05:11;;;;;;;0.05;0.05;;;;;;;11.89;97.80;101260.25;10395921;28;20045;-67
2021/10/02 06:10:12;;;;;;;0.10;0.10;;;;;;;11.90;97.86;101261.13;10376725;28;20029;-67
2021/10/02 06:15:12;;;;;;;0.10;0.10;;;;;;;11.93;97.94;101261.63;10371961;28;20041;-67
2021/10/02 06:20:12;;;;;;;0.10;0.10;;;;;;;11.95;97.99;101272.13;10401580;28;20025;-67
2021/10/02 06:25:14;;;;;;;0.10;0.10;;;;;;;11.99;98.60;101246.81;10411521;28;20398;-67
2021/10/02 06:30:14;;;;;;;0.00;0.00;;;;;;;12.09;98.42;101265.38;10413222;28;20030;-67
2021/10/02 06:35:15;;;;;;;0.10;0.10;;;;;;;12.14;98.61;101276.44;10413089;28;20108;-67
2021/10/02 06:40:16;;;;;;;0.10;0.10;;;;;;;12.15;98.35;101291.47;10412872;28;20040;-67
2021/10/02 06:45:16;;;;;;;0.00;0.00;;;;;;;12.14;98.51;101290.63;10413307;28;20272;-68
2021/10/02 06:50:16;;;;;;;0.10;0.10;;;;;;;12.15;98.45;101299.47;10412804;28;20049;-68
2021/10/02 06:55:17;;;;;;;0.10;0.10;;;;;;;12.15;98.34;101289.63;10412654;28;20029;-67
2021/10/02 07:00:17;;;;;;;0.10;0.10;;;;;;;12.16;98.67;101291.31;10412354;28;20044;-67
2021/10/02 07:05:17;;;;;;;0.10;0.10;;;;;;;12.23;98.61;101287.00;10412092;28;20515;-68
2021/10/02 07:10:20;;;;;;;0.10;0.10;;;;;;;12.41;98.58;101286.09;10431260;22;20308;-67
2021/10/02 07:15:21;;;;;;;0.10;0.10;;;;;;;12.53;97.82;101297.31;10411914;28;20478;-67
2021/10/02 07:20:25;;;;;;;0.10;0.10;;;;;;;12.55;98.09;101290.00;10411544;28;20018;-67
2021/10/02 07:25:26;;;;;;;0.10;0.10;;;;;;;12.60;97.48;101268.97;10411434;28;20032;-67
2021/10/02 07:30:26;;;;;;;0.00;0.00;;;;;;;12.61;97.34;101268.81;10411231;28;20492;-67
2021/10/02 07:35:27;;;;;;;0.10;0.10;;;;;;;12.65;97.31;101272.84;10436760;28;20057;-67
2021/10/02 07:40:28;;;;;;;0.10;0.10;;;;;;;12.82;97.31;101275.53;10452485;28;20013;-67
2021/10/02 07:45:30;;;;;;;0.10;0.10;;;;;;;13.07;96.36;101271.09;10452066;28;20027;-67
2021/10/02 07:50:32;;;;;;;0.10;0.10;;;;;;;13.22;95.63;101279.31;10451572;28;20021;-67
2021/10/02 07:55:33;;;;;;;0.10;0.10;;;;;;;13.26;94.71;101262.78;10450628;28;20357;-67
2021/10/02 08:00:33;;;;;;;0.05;0.05;;;;;;;13.48;94.10;101257.78;10443077;28;20115;-67
2021/10/02 08:05:34;;;;;;;0.10;0.10;;;;;;;13.66;94.30;101258.44;10450500;28;20025;-67
2021/10/02 08:10:35;;;;;;;0.10;0.10;;;;;;;13.79;94.01;101255.25;10450619;28;20035;-67
2021/10/02 08:15:35;;;;;;;0.10;0.10;;;;;;;13.96;92.52;101272.13;10450986;28;20063;-68
2021/10/02 08:20:36;;;;;;;0.10;0.10;;;;;;;13.86;92.42;101260.75;10450613;28;20108;-67
2021/10/02 08:25:37;;;;;;;0.10;0.10;;;;;;;13.77;92.77;101259.94;10450785;28;20028;-67
2021/10/02 08:30:37;;;;;;;0.10;0.10;;;;;;;13.92;92.62;101262.75;10442624;28;20025;-67
2021/10/02 08:35:39;;;;;;;0.10;0.10;;;;;;;14.20;92.85;101269.38;10450596;28;20495;-68
2021/10/02 08:40:39;;;;;;;0.10;0.10;;;;;;;14.35;91.62;101263.31;10449912;28;20259;-67
2021/10/02 08:45:41;;;;;;;0.00;0.00;;;;;;;14.46;90.44;101261.09;10450445;28;20021;-67
2021/10/02 08:50:43;;;;;;;0.00;0.00;;;;;;;14.64;90.18;101252.81;10449877;28;20045;-67
2021/10/02 08:55:44;;;;;;;0.10;0.10;;;;;;;14.79;89.84;101254.75;10450205;28;20052;-67
2021/10/02 09:00:44;;;;;;;0.10;0.10;;;;;;;14.97;88.81;101246.44;10442725;28;20098;-67
2021/10/02 09:05:45;;;;;;;0.10;0.10;;;;;;;15.05;86.92;101246.38;10449959;28;20029;-67
2021/10/02 09:10:46;;;;;;;0.10;0.10;;;;;;;15.19;86.33;101242.94;10449678;28;20060;-67
2021/10/02 09:15:47;;;;;;;0.00;0.00;;;;;;;15.36;86.89;101247.16;10449792;28;20667;-68
2021/10/02 09:21:08;;;;;;;0.10;0.10;;;;;;;15.26;86.25;101249.25;10450076;28;20426;-67
2021/10/02 09:26:09;;;;;;;0.10;0.10;;;;;;;15.10;86.96;101242.16;10449453;28;20029;-67
2021/10/02 09:31:10;;;;;;;0.10;0.10;;;;;;;15.00;86.39;101224.63;10427230;28;20025;-67
2021/10/02 09:36:19;;;;;;;0.10;0.10;;;;;;;15.00;86.65;101222.78;10408097;28;20460;-67
2021/10/02 09:41:21;;;;;;;0.03;0.03;;;;;;;15.34;85.27;101208.91;10408719;28;20143;-67
2021/10/02 09:46:33;;;;;;;0.00;0.00;;;;;;;15.49;84.51;101219.69;10415568;28;20458;-67
2021/10/02 09:51:42;;;;;;;0.10;0.10;;;;;;;15.58;84.62;101209.72;10414873;28;20045;-67
2021/10/02 09:57:06;;;;;;;0.10;0.10;;;;;;;15.71;85.05;101207.28;10413780;28;20037;-67
2021/10/02 10:02:29;;;;;;;0.05;0.05;;;;;;;16.14;82.60;101215.50;10438433;28;20409;-67
2021/10/02 10:07:29;;;;;;;0.10;0.10;;;;;;;16.48;81.07;101206.03;10457750;28;20047;-68
2021/10/02 10:12:30;;;;;;;0.10;0.10;;;;;;;16.69;80.40;101208.75;10455189;28;20106;-67
2021/10/02 10:17:32;;;;;;;0.10;0.10;;;;;;;16.59;80.73;101202.84;10454724;28;20412;-67
2021/10/02 10:22:33;;;;;;;0.10;0.10;;;;;;;16.73;79.49;101199.28;10452441;28;20017;-67
2021/10/02 10:27:46;;;;;;;0.10;0.10;;;;;;;17.01;78.11;101187.78;10451700;28;20025;-66
2021/10/02 10:33:02;;;;;;;0.10;0.10;;;;;;;16.96;76.96;101190.25;10449644;28;20272;-66
2021/10/02 10:38:05;;;;;;;0.10;0.10;;;;;;;16.92;77.59;101192.47;10454608;28;20021;-66
2021/10/02 10:43:06;;;;;;;0.10;0.10;;;;;;;16.87;77.15;101191.38;10454685;28;20032;-66
2021/10/02 10:48:08;;;;;;;0.10;0.10;;;;;;;16.65;79.18;101198.56;10454296;28;20470;-65
2021/10/02 10:53:10;;;;;;;0.10;0.10;;;;;;;16.51;78.50;101184.97;10453807;28;20025;-66
2021/10/02 10:58:20;;;;;;;0.00;0.00;;;;;;;16.38;78.81;101190.19;10448566;28;20029;-66
2021/10/02 11:03:37;;;;;;;0.00;0.00;;;;;;;16.38;79.58;101184.00;10453423;28;20548;-66
2021/10/02 11:08:59;;;;;;;0.00;0.00;;;;;;;16.50;78.83;101182.47;10453027;28;20058;-66
2021/10/02 11:13:59;;;;;;;0.00;0.00;;;;;;;16.82;78.49;101186.56;10452240;28;20033;-66
2021/10/02 11:18:59;;;;;;;0.00;0.00;;;;;;;17.24;77.33;101175.97;10453308;28;20020;-65
2021/10/02 11:24:00;;;;;;;0.00;0.00;;;;;;;17.37;76.51;101170.72;10453499;28;20482;-65
2021/10/02 11:29:00;;;;;;;0.00;0.00;;;;;;;17.59;76.54;101171.47;10444193;28;20021;-65
2021/10/02 11:34:01;;;;;;;0.10;0.10;;;;;;;17.48;75.46;101170.16;10452861;28;20429;-65
2021/10/02 11:39:12;;;;;;;0.00;0.00;;;;;;;17.25;76.09;101153.41;10452904;28;20033;-66
2021/10/02 11:44:20;;;;;;;0.00;0.00;;;;;;;17.14;75.73;101139.47;10453502;28;20040;-66
2021/10/02 11:49:21;;;;;;;0.00;0.00;;;;;;;17.37;75.15;101139.22;10452894;28;20052;-65
2021/10/02 11:54:21;;;;;;;0.00;0.00;;;;;;;17.32;74.04;101122.00;10453044;28;20461;-66
2021/10/02 11:59:22;;;;;;;0.00;0.00;;;;;;;17.22;72.78;101118.81;10446069;28;20017;-66
2021/10/02 12:04:22;;;;;;;0.00;0.00;;;;;;;17.34;74.46;101117.25;10451024;28;20024;-65
2021/10/02 12:09:23;;;;;;;0.00;0.00;;;;;;;17.49;72.60;101104.50;10451374;28;20017;-65
2021/10/02 12:14:25;;;;;;;0.00;0.00;;;;;;;17.45;71.67;101102.41;10450257;28;20029;-69
2021/10/02 12:19:26;;;;;;;0.10;0.10;;;;;;;17.52;73.00;101090.66;10451160;28;20025;-68
2021/10/02 12:24:27;;;;;;;0.10;0.10;;;;;;;17.58;73.36;101097.94;10451252;28;20029;-67
2021/10/02 12:29:33;;;;;;;0.10;0.10;;;;;;;17.46;73.21;101083.38;10443349;28;20104;-68
2021/10/02 12:34:43;;;;;;;0.10;0.10;;;;;;;17.30;74.67;101076.41;10416544;28;20277;-68
2021/10/02 12:39:47;;;;;;;0.10;0.10;;;;;;;17.15;73.45;101081.06;10409417;28;20029;-68
2021/10/02 12:44:50;;;;;;;0.00;0.00;;;;;;;17.11;73.13;101074.44;10409673;28;20108;-68
2021/10/02 12:49:53;;;;;;;0.00;0.00;;;;;;;16.98;74.65;101072.47;10409747;28;20386;-68
2021/10/02 12:54:56;;;;;;;0.00;0.00;;;;;;;17.00;75.11;101059.66;10409513;28;20083;-68
2021/10/02 13:00:10;;;;;;;0.00;0.00;;;;;;;17.19;76.14;101067.03;10428528;28;20017;-68
2021/10/02 13:05:11;;;;;;;0.00;0.00;;;;;;;17.26;74.09;101050.09;10450430;28;20035;-69
2021/10/02 13:10:20;;;;;;;0.10;0.10;;;;;;;17.14;72.70;101053.34;10443951;22;20050;-64
2021/10/02 13:15:24;;;;;;;0.10;0.10;;;;;;;17.30;74.59;101057.56;10408166;28;20504;-64
2021/10/02 13:20:26;;;;;;;0.10;0.10;;;;;;;17.36;73.61;101054.06;10415210;28;20040;-65
2021/10/02 13:25:28;;;;;;;0.10;0.10;;;;;;;17.19;74.59;101058.09;10416466;28;20029;-65
2021/10/02 13:30:31;;;;;;;0.00;0.00;;;;;;;17.10;72.75;101043.97;10415772;28;20021;-63
2021/10/02 13:35:38;;;;;;;0.10;0.10;;;;;;;17.02;74.18;101037.94;10415982;28;20057;-63
2021/10/02 13:40:47;;;;;;;0.00;0.00;;;;;;;17.00;72.43;101032.75;10377304;28;20093;-65
2021/10/02 13:45:52;;;;;;;0.00;0.00;;;;;;;16.94;73.70;101028.16;10374978;28;20053;-65
2021/10/02 13:50:54;;;;;;;0.10;0.10;;;;;;;16.89;74.25;101027.91;10373988;28;20018;-65
2021/10/02 13:55:55;;;;;;;0.10;0.10;;;;;;;16.85;75.05;101014.00;10374340;28;20040;-65
2021/10/02 14:00:55;;;;;;;0.10;0.10;;;;;;;16.72;74.80;100993.16;10373942;28;20117;-65
2021/10/02 14:05:57;;;;;;;0.10;0.10;;;;;;;16.53;73.95;100996.56;10373930;28;20030;-65
2021/10/02 14:10:58;;;;;;;0.10;0.10;;;;;;;16.39;75.04;100975.97;10344897;28;20029;-64
2021/10/02 14:15:58;;;;;;;0.10;0.10;;;;;;;16.33;77.15;100971.38;10333028;28;20038;-65
2021/10/02 14:20:58;;;;;;;0.00;0.00;;;;;;;16.21;76.19;100974.56;10332652;28;20026;-64
2021/10/02 14:25:59;;;;;;;0.10;0.10;;;;;;;16.10;77.27;100972.38;10332709;28;20027;-65
2021/10/02 14:31:00;;;;;;;0.00;0.00;;;;;;;15.98;77.45;100957.81;10331289;28;20371;-65
2021/10/02 14:36:01;;;;;;;0.00;0.00;;;;;;;15.84;76.03;100959.50;10332457;28;20027;-64
2021/10/02 14:41:01;;;;;;;0.10;0.10;;;;;;;15.77;79.01;100964.81;10335062;28;20475;-65
2021/10/02 14:46:02;;;;;;;0.10;0.10;;;;;;;15.69;79.84;100974.84;10331932;28;20024;-65
2021/10/02 14:51:02;;;;;;;0.10;0.10;;;;;;;15.58;80.21;100966.22;10331457;28;20030;-65
2021/10/02 14:56:03;;;;;;;0.00;0.00;;;;;;;15.49;80.04;100955.78;10331578;28;20038;-65
2021/10/02 15:01:03;;;;;;;0.00;0.00;;;;;;;15.37;81.06;100952.75;10314081;28;20257;-64
2021/10/02 15:06:04;;;;;;;0.10;0.10;;;;;;;15.31;81.05;100954.31;10331099;28;20046;-65
2021/10/02 15:11:05;;;;;;;0.00;0.00;;;;;;;15.23;81.38;100954.41;10352932;28;20026;-64
2021/10/02 15:16:06;;;;;;;0.00;0.00;;;;;;;15.17;81.39;100942.59;10349028;28;20030;-65
2021/10/02 15:21:11;;;;;;;0.00;0.00;;;;;;;15.10;81.54;100938.16;10361410;28;20489;-64
2021/10/02 15:26:15;;;;;;;0.00;0.00;;;;;;;15.05;82.86;100938.72;10369083;28;20021;-64
2021/10/02 15:31:15;;;;;;;;;;;;;;;15.02;82.99;100932.91;10351232;28;20110;-65
2021/10/02 15:36:19;;;;;;;0.10;0.10;;;;;;;14.98;82.61;100910.13;10362044;28;20334;-64
2021/10/02 15:41:19;;;;;;;0.00;0.00;;;;;;;14.93;83.16;100916.88;10346453;28;20053;-65
2021/10/02 15:46:20;;;;;;;0.10;0.10;;;;;;;14.89;82.78;100904.03;10351939;28;20060;-66
2021/10/02 15:51:24;;;;;;;0.00;0.00;;;;;;;14.87;82.55;100906.06;10363033;28;20053;-65
2021/10/02 15:56:27;;;;;;;0.00;0.00;;;;;;;14.82;82.68;100898.56;10333518;28;20026;-66
2021/10/02 16:01:29;;;;;;;0.00;0.00;;;;;;;14.80;83.21;100900.59;10357675;28;20022;-65
2021/10/02 16:06:35;;;;;;;0.10;0.10;;;;;;;14.79;83.33;100898.94;10364890;28;20470;-65
2021/10/02 16:11:40;;;;;;;0.10;0.10;;;;;;;14.77;83.64;100900.97;10354694;28;20167;-66
2021/10/02 16:16:42;;;;;;;0.10;0.10;;;;;;;14.72;84.01;100908.75;10345558;28;20029;-65
2021/10/02 16:21:43;;;;;;;0.10;0.10;;;;;;;14.68;84.21;100889.50;10367374;28;20391;-66
2021/10/02 16:26:43;;;;;;;0.10;0.10;;;;;;;14.60;85.04;100881.59;10356808;28;20032;-65
2021/10/02 16:31:43;;;;;;;0.10;0.10;;;;;;;14.53;85.37;100877.94;10337118;28;20022;-65
2021/10/02 16:36:44;;;;;;;0.10;0.10;;;;;;;14.49;85.19;100864.06;10354614;28;20637;-65
2021/10/02 16:41:46;;;;;;;0.10;0.10;;;;;;;14.44;85.95;100844.19;10356087;28;20273;-65
2021/10/02 16:46:46;;;;;;;0.00;0.00;;;;;;;14.43;85.89;100832.63;10364687;28;20076;-65
2021/10/02 16:51:47;;;;;;;0.10;0.10;;;;;;;14.42;86.05;100827.44;10366596;28;20072;-65
2021/10/02 16:56:47;;;;;;;0.10;0.10;;;;;;;14.38;86.43;100804.72;10337158;28;20093;-65
2021/10/02 17:01:47;;;;;;;0.10;0.10;;;;;;;14.33;86.37;100793.72;10356235;28;20022;-65
2021/10/02 17:06:48;;;;;;;0.00;0.00;;;;;;;14.30;86.57;100794.09;10351074;28;20034;-65
2021/10/02 17:11:48;;;;;;;0.10;0.10;;;;;;;14.27;86.67;100780.03;10363163;28;20502;-66
2021/10/02 17:16:49;;;;;;;0.10;0.10;;;;;;;14.26;87.34;100766.84;10355112;28;20472;-65
2021/10/02 17:21:49;;;;;;;0.10;0.10;;;;;;;14.23;87.89;100764.53;10361276;28;20261;-65
2021/10/02 17:26:54;;;;;;;0.10;0.10;;;;;;;14.25;87.63;100755.31;10373955;28;20470;-65
2021/10/02 17:31:55;;;;;;;0.10;0.10;;;;;;;14.25;87.69;100744.59;10325129;28;20368;-67
2021/10/02 17:36:55;;;;;;;0.10;0.10;;;;;;;14.24;87.73;100736.72;10333452;28;20033;-67
2021/10/02 17:41:55;;;;;;;0.00;0.00;;;;;;;14.25;87.54;100735.69;10337082;28;20017;-67
2021/10/02 17:46:56;;;;;;;0.10;0.10;;;;;;;14.29;87.18;100731.66;10372323;28;20264;-67
2021/10/02 17:51:58;;;;;;;0.10;0.10;;;;;;;14.34;86.90;100723.03;10373315;28;20306;-67
2021/10/02 17:56:58;;;;;;;0.10;0.10;;;;;;;14.34;87.14;100715.00;10373019;28;20343;-67
2021/10/02 18:01:59;;;;;;;0.10;0.10;;;;;;;14.36;86.53;100719.16;10371880;28;20434;-67
2021/10/02 18:06:59;;;;;;;0.10;0.10;;;;;;;14.39;86.72;100708.06;10372418;28;20687;-67
2021/10/02 18:12:00;;;;;;;0.10;0.10;;;;;;;14.37;86.67;100704.75;10356775;28;20490;-65
2021/10/02 18:17:00;;;;;;;0.10;0.10;;;;;;;14.39;86.73;100686.63;10354293;28;20022;-67
2021/10/02 18:22:02;;;;;;;0.10;0.10;;;;;;;14.37;86.74;100677.09;10340287;28;20076;-67
2021/10/02 18:27:23;;;;;;;0.00;0.00;;;;;;;14.36;86.91;100670.09;10331893;28;20087;-66
2021/10/02 18:32:26;;;;;;;0.10;0.10;;;;;;;14.32;86.98;100658.13;10342053;28;20109;-65
2021/10/02 18:37:27;;;;;;;0.10;0.10;;;;;;;14.27;87.08;100650.63;10371584;28;20033;-67
2021/10/02 18:42:27;;;;;;;0.10;0.10;;;;;;;14.26;87.15;100651.66;10363378;28;20030;-66
2021/10/02 18:47:27;;;;;;;0.10;0.10;;;;;;;14.28;86.96;100660.31;10370658;28;20026;-67
2021/10/02 18:52:28;;;;;;;0.10;0.10;;;;;;;14.28;86.95;100636.19;10354721;28;20030;-67
2021/10/02 18:57:28;;;;;;;0.10;0.10;;;;;;;14.30;86.73;100626.13;10371329;28;20193;-67
2021/10/02 19:02:28;;;;;;;0.10;0.10;;;;;;;14.30;86.76;100623.44;10371606;28;20030;-67
2021/10/02 19:07:29;;;;;;;0.10;0.10;;;;;;;14.26;86.76;100603.44;10370564;28;20648;-66
2021/10/02 19:12:29;;;;;;;0.10;0.10;;;;;;;14.25;86.72;100594.56;10477731;22;20503;-69
2021/10/02 19:17:29;;;;;;;0.00;0.00;;;;;;;14.21;87.04;100573.69;10452942;28;20024;-68
2021/10/02 19:22:30;;;;;;;0.10;0.10;;;;;;;14.23;86.97;100577.03;10453237;28;20052;-69
2021/10/02 19:27:31;;;;;;;0.00;0.00;;;;;;;14.23;87.39;100571.66;10452556;28;20473;-68
2021/10/02 19:32:31;;;;;;;0.10;0.10;;;;;;;14.20;87.11;100559.47;10452910;28;20303;-69
2021/10/02 19:37:31;;;;;;;0.10;0.10;;;;;;;14.21;87.13;100542.38;10452127;28;20025;-68
2021/10/02 19:42:32;;;;;;;0.00;0.00;;;;;;;14.22;86.91;100535.16;10452246;28;20025;-69
2021/10/02 19:47:33;;;;;;;0.10;0.10;;;;;;;14.18;87.00;100518.66;10451889;28;20078;-69
2021/10/02 19:52:33;;;;;;;0.10;0.10;;;;;;;14.17;87.15;100500.94;10452349;28;20485;-69
2021/10/02 19:57:34;;;;;;;0.10;0.10;;;;;;;14.19;86.75;100490.81;10451608;28;20150;-69
2021/10/02 20:02:34;;;;;;;0.00;0.00;;;;;;;14.24;86.24;100485.72;10450331;28;20280;-67
2021/10/02 20:07:35;;;;;;;0.10;0.10;;;;;;;14.33;85.32;100474.91;10451060;28;20037;-67
2021/10/02 20:12:35;;;;;;;0.10;0.10;;;;;;;14.36;85.55;100461.13;10451007;28;20033;-67
2021/10/02 20:17:36;;;;;;;0.10;0.10;;;;;;;14.37;85.66;100460.94;10451166;28;20120;-66
2021/10/02 20:22:37;;;;;;;0.00;0.00;;;;;;;14.37;85.40;100446.69;10466776;28;20266;-67
2021/10/02 20:27:38;;;;;;;0.10;0.10;;;;;;;14.37;85.62;100438.66;10465316;28;20504;-67
2021/10/02 20:32:39;;;;;;;0.10;0.10;;;;;;;14.40;85.02;100443.66;10450986;28;20052;-68
2021/10/02 20:37:39;;;;;;;0.00;0.00;;;;;;;14.44;84.65;100437.69;10450490;28;20025;-67
2021/10/02 20:42:40;;;;;;;0.10;0.10;;;;;;;14.46;84.31;100419.56;10450705;28;20496;-67
2021/10/02 20:47:43;;;;;;;0.10;0.10;;;;;;;14.51;83.75;100418.97;10450405;28;20107;-67
2021/10/02 20:52:45;;;;;;;0.10;0.10;;;;;;;14.52;83.50;100393.88;10450317;28;20021;-68
2021/10/02 20:57:48;;;;;;;0.10;0.10;;;;;;;14.55;83.44;100382.78;10450470;28;20025;-67
2021/10/02 21:02:53;;;;;;;0.10;0.10;;;;;;;14.57;83.06;100367.28;10450803;28;20386;-68
2021/10/02 21:07:55;;;;;;;0.10;0.10;;;;;;;14.62;82.94;100354.16;10449936;28;20052;-67
2021/10/02 21:12:56;;;;;;;0.10;0.10;;;;;;;14.63;82.86;100339.75;10450213;28;20512;-67
2021/10/02 21:17:57;;;;;;;0.00;0.00;;;;;;;14.65;82.32;100334.16;10449739;28;20021;-67
2021/10/02 21:22:57;;;;;;;0.10;0.10;;;;;;;14.73;81.87;100314.41;10450152;28;20020;-67
2021/10/02 21:27:58;;;;;;;0.00;0.00;;;;;;;14.77;81.41;100316.47;10449437;28;20025;-67
2021/10/02 21:33:00;;;;;;;0.10;0.10;;;;;;;14.90;80.27;100303.16;10449746;28;20036;-66
2021/10/02 21:38:01;;;;;;;0.00;0.00;;;;;;;14.93;80.81;100299.25;10451675;28;20465;-67
2021/10/02 21:43:01;;;;;;;0.00;0.00;;;;;;;14.96;80.63;100290.78;10457098;28;20111;-67
2021/10/02 21:48:01;;;;;;;0.10;0.10;;;;;;;15.10;79.41;100280.94;10456716;28;20397;-66
2021/10/02 21:53:02;;;;;;;0.00;0.00;;;;;;;15.26;77.65;100263.63;10456857;28;20048;-67
2021/10/02 21:58:04;;;;;;;0.10;0.10;;;;;;;15.34;77.39;100260.78;10456789;28;20388;-67
2021/10/02 22:03:04;;;;;;;0.03;0.03;;;;;;;15.36;76.74;100259.53;10456319;28;20100;-65
2021/10/02 22:08:05;;;;;;;0.10;0.10;;;;;;;15.50;75.34;100256.84;10449871;28;20112;-66
2021/10/02 22:13:06;;;;;;;0.10;0.10;;;;;;;15.71;73.85;100237.91;10456081;28;20092;-67
2021/10/02 22:18:08;;;;;;;0.00;0.00;;;;;;;15.82;73.89;100226.53;10455540;28;20016;-67
2021/10/02 22:23:09;;;;;;;0.10;0.10;;;;;;;15.89;73.40;100210.41;10456188;28;20178;-67
2021/10/02 22:28:10;;;;;;;0.10;0.10;;;;;;;15.96;72.76;100205.03;10455028;28;20081;-67
2021/10/02 22:33:11;;;;;;;0.10;0.10;;;;;;;15.92;73.24;100199.25;10455341;28;20021;-67
2021/10/02 22:38:11;;;;;;;0.10;0.10;;;;;;;15.93;73.08;100210.81;10454707;28;20024;-67
2021/10/02 22:43:12;;;;;;;0.00;0.00;;;;;;;15.91;73.28;100191.41;10454680;28;20017;-67
2021/10/02 22:48:14;;;;;;;0.10;0.10;;;;;;;15.81;73.52;100168.47;10453555;28;20061;-66
2021/10/02 22:53:15;;;;;;;0.10;0.10;;;;;;;15.79;73.18;100173.22;10454824;28;20031;-66
2021/10/02 22:58:15;;;;;;;0.10;0.10;;;;;;;15.82;72.46;100154.03;10454557;28;20622;-67
2021/10/02 23:03:16;;;;;;;0.00;0.00;;;;;;;15.86;71.95;100150.94;10454736;28;20048;-66
2021/10/02 23:08:17;;;;;;;0.00;0.00;;;;;;;15.98;71.22;100143.88;10453401;28;20021;-67
2021/10/02 23:13:18;;;;;;;0.00;0.00;;;;;;;16.00;72.45;100141.81;10453621;28;20067;-67
2021/10/02 23:18:29;;;;;;;0.00;0.00;;;;;;;15.91;73.68;100132.31;10453249;28;20017;-68
2021/10/02 23:23:30;;;;;;;0.08;0.08;;;;;;;15.79;75.85;100137.50;10453377;28;20028;-67
2021/10/02 23:28:30;;;;;;;0.10;0.10;;;;;;;15.53;77.95;100144.56;10452704;28;20499;-67
2021/10/02 23:33:31;;;;;;;0.10;0.10;;;;;;;15.20;81.44;100123.09;10468324;28;20017;-65
2021/10/02 23:38:32;;;;;;;0.00;0.00;;;;;;;14.83;85.63;100111.91;10458823;28;20021;-68
2021/10/02 23:43:32;;;;;;;0.10;0.10;;;;;;;14.56;86.98;100119.09;10440847;28;20474;-68
2021/10/02 23:48:32;;;;;;;0.00;0.00;;;;;;;14.48;88.44;100101.31;10435777;28;20127;-67
2021/10/02 23:53:34;;;;;;;0.10;0.10;;;;;;;14.54;87.54;100072.91;10427205;28;20029;-68
2021/10/02 23:58:40;;;;;;;0.10;0.10;;;;;;;14.64;86.75;100051.09;10432736;28;20079;-68
